sensor_id;sensor_type;location;lat;lon;timestamp;temperature;humidity
66722;SHT31;53633;49.932;10.884;2022-08-19T00:01:44;21.15;84.11
66722;SHT31;53633;49.932;10.884;2022-08-19T00:04:21;21.09;84.99
66722;SHT31;53633;49.932;10.884;2022-08-19T00:06:48;21.14;84.37
66722;SHT31;53633;49.932;10.884;2022-08-19T00:09:17;21.16;84.44
66722;SHT31;53633;49.932;10.884;2022-08-19T00:11:44;21.05;84.87
66722;SHT31;53633;49.932;10.884;2022-08-19T00:14:13;21.15;84.38
66722;SHT31;53633;49.932;10.884;2022-08-19T00:16:41;21.22;83.80
66722;SHT31;53633;49.932;10.884;2022-08-19T00:19:08;21.36;83.18
66722;SHT31;53633;49.932;10.884;2022-08-19T00:21:37;21.41;82.87
66722;SHT31;53633;49.932;10.884;2022-08-19T00:24:03;21.43;82.45
66722;SHT31;53633;49.932;10.884;2022-08-19T00:26:30;21.25;82.98
66722;SHT31;53633;49.932;10.884;2022-08-19T00:28:57;21.14;83.69
66722;SHT31;53633;49.932;10.884;2022-08-19T00:31:24;20.98;84.32
66722;SHT31;53633;49.932;10.884;2022-08-19T00:33:50;20.99;83.92
66722;SHT31;53633;49.932;10.884;2022-08-19T00:36:17;21.14;83.20
66722;SHT31;53633;49.932;10.884;2022-08-19T00:38:47;21.16;82.91
66722;SHT31;53633;49.932;10.884;2022-08-19T00:41:15;21.11;83.35
66722;SHT31;53633;49.932;10.884;2022-08-19T00:43:42;21.11;83.08
66722;SHT31;53633;49.932;10.884;2022-08-19T00:46:09;21.18;82.67
66722;SHT31;53633;49.932;10.884;2022-08-19T00:48:36;21.18;82.50
66722;SHT31;53633;49.932;10.884;2022-08-19T00:51:03;20.88;84.19
66722;SHT31;53633;49.932;10.884;2022-08-19T00:53:31;20.88;84.23
66722;SHT31;53633;49.932;10.884;2022-08-19T00:56:00;20.78;84.03
66722;SHT31;53633;49.932;10.884;2022-08-19T00:58:31;20.56;85.06
66722;SHT31;53633;49.932;10.884;2022-08-19T01:00:58;20.42;85.48
66722;SHT31;53633;49.932;10.884;2022-08-19T01:03:25;20.08;85.98
66722;SHT31;53633;49.932;10.884;2022-08-19T01:05:54;19.85;86.93
66722;SHT31;53633;49.932;10.884;2022-08-19T01:08:21;19.67;87.21
66722;SHT31;53633;49.932;10.884;2022-08-19T01:10:49;19.46;88.21
66722;SHT31;53633;49.932;10.884;2022-08-19T01:13:20;19.37;88.23
66722;SHT31;53633;49.932;10.884;2022-08-19T01:15:55;19.66;87.73
66722;SHT31;53633;49.932;10.884;2022-08-19T01:18:23;20.05;86.41
66722;SHT31;53633;49.932;10.884;2022-08-19T01:20:54;20.29;85.15
66722;SHT31;53633;49.932;10.884;2022-08-19T01:23:24;20.06;86.07
66722;SHT31;53633;49.932;10.884;2022-08-19T01:25:52;19.85;86.73
66722;SHT31;53633;49.932;10.884;2022-08-19T01:28:21;19.78;87.09
66722;SHT31;53633;49.932;10.884;2022-08-19T01:31:06;19.74;87.42
66722;SHT31;53633;49.932;10.884;2022-08-19T01:33:33;19.64;87.99
66722;SHT31;53633;49.932;10.884;2022-08-19T01:36:05;19.68;87.86
66722;SHT31;53633;49.932;10.884;2022-08-19T01:38:36;19.98;87.05
66722;SHT31;53633;49.932;10.884;2022-08-19T01:41:10;19.89;87.63
66722;SHT31;53633;49.932;10.884;2022-08-19T01:43:37;19.81;87.72
66722;SHT31;53633;49.932;10.884;2022-08-19T01:46:23;19.88;87.84
66722;SHT31;53633;49.932;10.884;2022-08-19T01:48:50;19.88;88.18
66722;SHT31;53633;49.932;10.884;2022-08-19T01:51:17;19.89;88.27
66722;SHT31;53633;49.932;10.884;2022-08-19T01:53:46;20.01;88.25
66722;SHT31;53633;49.932;10.884;2022-08-19T01:56:13;20.13;87.50
66722;SHT31;53633;49.932;10.884;2022-08-19T01:58:43;20.08;88.08
66722;SHT31;53633;49.932;10.884;2022-08-19T02:01:10;20.04;88.00
66722;SHT31;53633;49.932;10.884;2022-08-19T02:03:37;20.08;87.91
66722;SHT31;53633;49.932;10.884;2022-08-19T02:06:04;20.39;86.56
66722;SHT31;53633;49.932;10.884;2022-08-19T02:08:33;20.67;85.31
66722;SHT31;53633;49.932;10.884;2022-08-19T02:11:03;20.67;85.96
66722;SHT31;53633;49.932;10.884;2022-08-19T02:13:31;20.40;86.99
66722;SHT31;53633;49.932;10.884;2022-08-19T02:15:58;20.23;87.28
66722;SHT31;53633;49.932;10.884;2022-08-19T02:18:25;20.40;86.81
66722;SHT31;53633;49.932;10.884;2022-08-19T02:20:53;20.26;87.22
66722;SHT31;53633;49.932;10.884;2022-08-19T02:23:20;20.16;87.85
66722;SHT31;53633;49.932;10.884;2022-08-19T02:25:47;20.57;86.33
66722;SHT31;53633;49.932;10.884;2022-08-19T02:28:15;20.73;85.17
66722;SHT31;53633;49.932;10.884;2022-08-19T02:30:45;20.61;85.90
66722;SHT31;53633;49.932;10.884;2022-08-19T02:33:12;20.61;86.11
66722;SHT31;53633;49.932;10.884;2022-08-19T02:35:41;20.74;85.20
66722;SHT31;53633;49.932;10.884;2022-08-19T02:38:08;20.80;84.84
66722;SHT31;53633;49.932;10.884;2022-08-19T02:40:35;20.97;83.99
66722;SHT31;53633;49.932;10.884;2022-08-19T02:43:05;20.67;85.71
66722;SHT31;53633;49.932;10.884;2022-08-19T02:45:34;20.71;85.24
66722;SHT31;53633;49.932;10.884;2022-08-19T02:48:05;20.57;85.93
66722;SHT31;53633;49.932;10.884;2022-08-19T02:50:48;20.46;86.55
66722;SHT31;53633;49.932;10.884;2022-08-19T02:53:18;20.44;86.24
66722;SHT31;53633;49.932;10.884;2022-08-19T02:55:46;20.32;86.73
66722;SHT31;53633;49.932;10.884;2022-08-19T02:58:14;20.21;87.03
66722;SHT31;53633;49.932;10.884;2022-08-19T03:00:44;20.04;87.48
66722;SHT31;53633;49.932;10.884;2022-08-19T03:03:11;20.04;87.54
66722;SHT31;53633;49.932;10.884;2022-08-19T03:05:38;20.01;87.60
66722;SHT31;53633;49.932;10.884;2022-08-19T03:08:21;20.23;87.25
66722;SHT31;53633;49.932;10.884;2022-08-19T03:10:48;20.13;87.63
66722;SHT31;53633;49.932;10.884;2022-08-19T03:13:16;20.32;86.77
66722;SHT31;53633;49.932;10.884;2022-08-19T03:15:46;20.22;87.03
66722;SHT31;53633;49.932;10.884;2022-08-19T03:18:14;20.21;87.40
66722;SHT31;53633;49.932;10.884;2022-08-19T03:20:44;20.37;86.65
66722;SHT31;53633;49.932;10.884;2022-08-19T03:23:12;20.33;87.36
66722;SHT31;53633;49.932;10.884;2022-08-19T03:25:39;20.36;87.26
66722;SHT31;53633;49.932;10.884;2022-08-19T03:28:06;20.32;87.47
66722;SHT31;53633;49.932;10.884;2022-08-19T03:30:33;20.09;88.25
66722;SHT31;53633;49.932;10.884;2022-08-19T03:33:01;20.08;88.30
66722;SHT31;53633;49.932;10.884;2022-08-19T03:35:31;20.11;88.43
66722;SHT31;53633;49.932;10.884;2022-08-19T03:37:58;20.21;87.87
66722;SHT31;53633;49.932;10.884;2022-08-19T03:40:25;20.43;87.44
66722;SHT31;53633;49.932;10.884;2022-08-19T03:42:51;20.33;87.87
66722;SHT31;53633;49.932;10.884;2022-08-19T03:45:21;20.34;87.66
66722;SHT31;53633;49.932;10.884;2022-08-19T03:47:48;20.42;87.49
66722;SHT31;53633;49.932;10.884;2022-08-19T03:50:17;20.39;87.67
66722;SHT31;53633;49.932;10.884;2022-08-19T03:52:48;20.64;86.57
66722;SHT31;53633;49.932;10.884;2022-08-19T03:55:15;20.32;87.65
66722;SHT31;53633;49.932;10.884;2022-08-19T03:57:42;20.43;87.25
66722;SHT31;53633;49.932;10.884;2022-08-19T04:00:09;20.59;86.86
66722;SHT31;53633;49.932;10.884;2022-08-19T04:02:39;20.53;87.10
66722;SHT31;53633;49.932;10.884;2022-08-19T04:05:07;20.59;86.60
66722;SHT31;53633;49.932;10.884;2022-08-19T04:07:35;20.46;86.98
66722;SHT31;53633;49.932;10.884;2022-08-19T04:10:02;20.59;86.28
66722;SHT31;53633;49.932;10.884;2022-08-19T04:12:29;20.84;85.18
66722;SHT31;53633;49.932;10.884;2022-08-19T04:14:56;20.83;84.97
66722;SHT31;53633;49.932;10.884;2022-08-19T04:17:23;20.88;84.36
66722;SHT31;53633;49.932;10.884;2022-08-19T04:19:49;20.92;83.98
66722;SHT31;53633;49.932;10.884;2022-08-19T04:22:16;21.02;83.42
66722;SHT31;53633;49.932;10.884;2022-08-19T04:24:44;21.01;83.35
66722;SHT31;53633;49.932;10.884;2022-08-19T04:27:11;20.85;83.79
66722;SHT31;53633;49.932;10.884;2022-08-19T04:29:37;20.61;84.59
66722;SHT31;53633;49.932;10.884;2022-08-19T04:32:04;20.53;85.34
66722;SHT31;53633;49.932;10.884;2022-08-19T04:34:35;20.59;84.94
66722;SHT31;53633;49.932;10.884;2022-08-19T04:37:22;20.54;84.95
66722;SHT31;53633;49.932;10.884;2022-08-19T04:39:50;20.28;85.85
66722;SHT31;53633;49.932;10.884;2022-08-19T04:42:24;20.15;85.85
66722;SHT31;53633;49.932;10.884;2022-08-19T04:44:56;19.88;86.91
66722;SHT31;53633;49.932;10.884;2022-08-19T04:47:24;19.85;87.08
66722;SHT31;53633;49.932;10.884;2022-08-19T04:50:11;20.11;85.89
66722;SHT31;53633;49.932;10.884;2022-08-19T04:52:37;20.06;86.59
66722;SHT31;53633;49.932;10.884;2022-08-19T04:55:07;19.98;87.02
66722;SHT31;53633;49.932;10.884;2022-08-19T04:57:33;20.12;86.29
66722;SHT31;53633;49.932;10.884;2022-08-19T05:00:00;20.02;87.00
66722;SHT31;53633;49.932;10.884;2022-08-19T05:02:27;20.11;86.86
66722;SHT31;53633;49.932;10.884;2022-08-19T05:04:56;19.99;87.12
66722;SHT31;53633;49.932;10.884;2022-08-19T05:07:23;20.06;87.16
66722;SHT31;53633;49.932;10.884;2022-08-19T05:09:50;20.15;87.14
66722;SHT31;53633;49.932;10.884;2022-08-19T05:12:26;20.05;87.49
66722;SHT31;53633;49.932;10.884;2022-08-19T05:14:55;20.32;85.92
66722;SHT31;53633;49.932;10.884;2022-08-19T05:17:22;20.26;86.22
66722;SHT31;53633;49.932;10.884;2022-08-19T05:19:54;20.13;87.44
66722;SHT31;53633;49.932;10.884;2022-08-19T05:22:21;20.11;87.55
66722;SHT31;53633;49.932;10.884;2022-08-19T05:24:48;20.21;87.19
66722;SHT31;53633;49.932;10.884;2022-08-19T05:27:36;20.37;86.32
66722;SHT31;53633;49.932;10.884;2022-08-19T05:30:03;20.29;86.58
66722;SHT31;53633;49.932;10.884;2022-08-19T05:32:30;20.23;86.44
66722;SHT31;53633;49.932;10.884;2022-08-19T05:34:57;20.29;86.26
66722;SHT31;53633;49.932;10.884;2022-08-19T05:37:24;20.15;87.19
66722;SHT31;53633;49.932;10.884;2022-08-19T05:39:50;20.15;87.19
66722;SHT31;53633;49.932;10.884;2022-08-19T05:42:17;20.12;86.85
66722;SHT31;53633;49.932;10.884;2022-08-19T05:44:46;20.16;86.90
66722;SHT31;53633;49.932;10.884;2022-08-19T05:47:13;20.12;87.43
66722;SHT31;53633;49.932;10.884;2022-08-19T05:49:41;20.05;87.29
66722;SHT31;53633;49.932;10.884;2022-08-19T05:52:10;20.15;86.92
66722;SHT31;53633;49.932;10.884;2022-08-19T05:54:38;20.21;86.41
66722;SHT31;53633;49.932;10.884;2022-08-19T05:57:06;20.23;86.18
66722;SHT31;53633;49.932;10.884;2022-08-19T05:59:34;20.30;85.64
66722;SHT31;53633;49.932;10.884;2022-08-19T06:02:06;20.39;85.54
66722;SHT31;53633;49.932;10.884;2022-08-19T06:04:33;20.49;85.75
66722;SHT31;53633;49.932;10.884;2022-08-19T06:07:00;20.61;85.64
66722;SHT31;53633;49.932;10.884;2022-08-19T06:09:38;20.52;85.58
66722;SHT31;53633;49.932;10.884;2022-08-19T06:12:05;20.69;85.14
66722;SHT31;53633;49.932;10.884;2022-08-19T06:14:34;20.74;85.01
66722;SHT31;53633;49.932;10.884;2022-08-19T06:17:07;20.98;83.83
66722;SHT31;53633;49.932;10.884;2022-08-19T06:19:35;20.98;83.86
66722;SHT31;53633;49.932;10.884;2022-08-19T06:22:07;21.18;82.99
66722;SHT31;53633;49.932;10.884;2022-08-19T06:24:34;21.09;83.40
66722;SHT31;53633;49.932;10.884;2022-08-19T06:27:01;20.99;83.97
66722;SHT31;53633;49.932;10.884;2022-08-19T06:29:29;21.05;84.41
66722;SHT31;53633;49.932;10.884;2022-08-19T06:31:57;21.11;84.19
66722;SHT31;53633;49.932;10.884;2022-08-19T06:34:27;21.11;84.38
66722;SHT31;53633;49.932;10.884;2022-08-19T06:36:55;21.22;83.82
66722;SHT31;53633;49.932;10.884;2022-08-19T06:39:24;21.16;83.94
66722;SHT31;53633;49.932;10.884;2022-08-19T06:41:53;21.21;83.51
66722;SHT31;53633;49.932;10.884;2022-08-19T06:44:26;21.25;83.12
66722;SHT31;53633;49.932;10.884;2022-08-19T06:46:56;21.28;82.92
66722;SHT31;53633;49.932;10.884;2022-08-19T06:49:23;21.25;83.06
66722;SHT31;53633;49.932;10.884;2022-08-19T06:51:51;21.26;83.20
66722;SHT31;53633;49.932;10.884;2022-08-19T06:54:18;21.12;83.92
66722;SHT31;53633;49.932;10.884;2022-08-19T06:56:46;20.99;84.66
66722;SHT31;53633;49.932;10.884;2022-08-19T06:59:14;21.08;84.52
66722;SHT31;53633;49.932;10.884;2022-08-19T07:01:43;21.12;84.07
66722;SHT31;53633;49.932;10.884;2022-08-19T07:04:10;21.09;84.00
66722;SHT31;53633;49.932;10.884;2022-08-19T07:06:37;20.99;84.63
66722;SHT31;53633;49.932;10.884;2022-08-19T07:09:15;20.98;85.49
66722;SHT31;53633;49.932;10.884;2022-08-19T07:11:45;20.94;84.45
66722;SHT31;53633;49.932;10.884;2022-08-19T07:14:13;20.91;85.47
66722;SHT31;53633;49.932;10.884;2022-08-19T07:16:45;21.05;84.25
66722;SHT31;53633;49.932;10.884;2022-08-19T07:19:12;21.08;84.28
66722;SHT31;53633;49.932;10.884;2022-08-19T07:21:42;21.24;83.56
66722;SHT31;53633;49.932;10.884;2022-08-19T07:24:10;21.22;84.27
66722;SHT31;53633;49.932;10.884;2022-08-19T07:26:39;21.38;83.01
66722;SHT31;53633;49.932;10.884;2022-08-19T07:29:08;21.54;82.47
66722;SHT31;53633;49.932;10.884;2022-08-19T07:31:36;21.42;82.73
66722;SHT31;53633;49.932;10.884;2022-08-19T07:34:05;21.42;83.16
66722;SHT31;53633;49.932;10.884;2022-08-19T07:36:34;21.56;83.66
66722;SHT31;53633;49.932;10.884;2022-08-19T07:39:05;21.77;81.71
66722;SHT31;53633;49.932;10.884;2022-08-19T07:41:35;21.73;82.52
66722;SHT31;53633;49.932;10.884;2022-08-19T07:44:02;21.81;81.77
66722;SHT31;53633;49.932;10.884;2022-08-19T07:46:29;21.91;81.69
66722;SHT31;53633;49.932;10.884;2022-08-19T07:48:56;21.98;80.88
66722;SHT31;53633;49.932;10.884;2022-08-19T07:51:23;22.07;80.45
66722;SHT31;53633;49.932;10.884;2022-08-19T07:54:03;22.02;80.69
66722;SHT31;53633;49.932;10.884;2022-08-19T07:56:29;22.00;80.38
66722;SHT31;53633;49.932;10.884;2022-08-19T07:58:58;22.12;80.20
66722;SHT31;53633;49.932;10.884;2022-08-19T08:01:26;22.08;80.10
66722;SHT31;53633;49.932;10.884;2022-08-19T08:03:56;22.19;79.59
66722;SHT31;53633;49.932;10.884;2022-08-19T08:06:23;22.24;80.04
66722;SHT31;53633;49.932;10.884;2022-08-19T08:08:54;22.35;79.54
66722;SHT31;53633;49.932;10.884;2022-08-19T08:11:23;22.35;78.34
66722;SHT31;53633;49.932;10.884;2022-08-19T08:13:50;22.35;79.68
66722;SHT31;53633;49.932;10.884;2022-08-19T08:16:33;22.48;79.55
66722;SHT31;53633;49.932;10.884;2022-08-19T08:19:05;22.21;79.62
66722;SHT31;53633;49.932;10.884;2022-08-19T08:21:46;22.27;78.65
66722;SHT31;53633;49.932;10.884;2022-08-19T08:24:13;22.49;77.70
66722;SHT31;53633;49.932;10.884;2022-08-19T08:26:40;22.56;77.33
66722;SHT31;53633;49.932;10.884;2022-08-19T08:29:17;22.63;77.20
66722;SHT31;53633;49.932;10.884;2022-08-19T08:31:47;22.76;76.87
66722;SHT31;53633;49.932;10.884;2022-08-19T08:34:23;22.80;76.94
66722;SHT31;53633;49.932;10.884;2022-08-19T08:36:50;23.00;76.63
66722;SHT31;53633;49.932;10.884;2022-08-19T08:39:20;23.31;75.50
66722;SHT31;53633;49.932;10.884;2022-08-19T08:41:51;23.70;74.28
66722;SHT31;53633;49.932;10.884;2022-08-19T08:44:23;24.23;73.20
66722;SHT31;53633;49.932;10.884;2022-08-19T08:46:55;24.88;71.64
66722;SHT31;53633;49.932;10.884;2022-08-19T08:49:31;25.22;70.36
66722;SHT31;53633;49.932;10.884;2022-08-19T08:52:03;25.36;69.99
66722;SHT31;53633;49.932;10.884;2022-08-19T08:54:34;25.51;69.55
66722;SHT31;53633;49.932;10.884;2022-08-19T08:57:04;26.08;68.35
66722;SHT31;53633;49.932;10.884;2022-08-19T08:59:37;26.19;67.95
66722;SHT31;53633;49.932;10.884;2022-08-19T09:02:07;26.11;67.34
66722;SHT31;53633;49.932;10.884;2022-08-19T09:04:34;26.03;68.21
66722;SHT31;53633;49.932;10.884;2022-08-19T09:07:13;26.06;67.52
66722;SHT31;53633;49.932;10.884;2022-08-19T09:10:08;26.05;67.96
66722;SHT31;53633;49.932;10.884;2022-08-19T09:12:47;25.93;67.55
66722;SHT31;53633;49.932;10.884;2022-08-19T09:15:25;25.70;68.11
66722;SHT31;53633;49.932;10.884;2022-08-19T09:18:02;25.91;68.27
66722;SHT31;53633;49.932;10.884;2022-08-19T09:20:32;25.47;67.69
66722;SHT31;53633;49.932;10.884;2022-08-19T09:22:59;25.67;67.12
66722;SHT31;53633;49.932;10.884;2022-08-19T09:25:26;25.84;67.16
66722;SHT31;53633;49.932;10.884;2022-08-19T09:27:55;26.02;66.46
66722;SHT31;53633;49.932;10.884;2022-08-19T09:30:33;26.50;65.43
66722;SHT31;53633;49.932;10.884;2022-08-19T09:33:01;26.95;64.68
66722;SHT31;53633;49.932;10.884;2022-08-19T09:35:29;26.65;64.30
66722;SHT31;53633;49.932;10.884;2022-08-19T09:37:57;26.25;64.74
66722;SHT31;53633;49.932;10.884;2022-08-19T09:40:25;25.88;66.21
66722;SHT31;53633;49.932;10.884;2022-08-19T09:42:56;25.80;66.54
66722;SHT31;53633;49.932;10.884;2022-08-19T09:45:23;25.33;66.55
66722;SHT31;53633;49.932;10.884;2022-08-19T09:47:51;25.36;67.39
66722;SHT31;53633;49.932;10.884;2022-08-19T09:50:22;25.10;67.89
66722;SHT31;53633;49.932;10.884;2022-08-19T09:52:49;24.88;68.52
66722;SHT31;53633;49.932;10.884;2022-08-19T09:55:23;24.37;70.21
66722;SHT31;53633;49.932;10.884;2022-08-19T09:57:56;24.43;70.37
66722;SHT31;53633;49.932;10.884;2022-08-19T10:00:23;24.45;70.29
66722;SHT31;53633;49.932;10.884;2022-08-19T10:02:50;24.21;71.33
66722;SHT31;53633;49.932;10.884;2022-08-19T10:05:18;24.35;71.31
66722;SHT31;53633;49.932;10.884;2022-08-19T10:07:53;24.33;71.45
66722;SHT31;53633;49.932;10.884;2022-08-19T10:10:22;24.33;71.33
66722;SHT31;53633;49.932;10.884;2022-08-19T10:12:50;24.12;72.21
66722;SHT31;53633;49.932;10.884;2022-08-19T10:15:16;23.92;71.96
66722;SHT31;53633;49.932;10.884;2022-08-19T10:17:54;23.83;72.48
66722;SHT31;53633;49.932;10.884;2022-08-19T10:20:21;23.73;72.88
66722;SHT31;53633;49.932;10.884;2022-08-19T10:22:48;23.76;72.76
66722;SHT31;53633;49.932;10.884;2022-08-19T10:25:18;23.65;73.49
66722;SHT31;53633;49.932;10.884;2022-08-19T10:27:45;23.61;73.75
66722;SHT31;53633;49.932;10.884;2022-08-19T10:30:17;23.70;73.71
66722;SHT31;53633;49.932;10.884;2022-08-19T10:32:46;23.82;73.72
66722;SHT31;53633;49.932;10.884;2022-08-19T10:35:13;23.89;73.08
66722;SHT31;53633;49.932;10.884;2022-08-19T10:37:47;24.07;72.62
66722;SHT31;53633;49.932;10.884;2022-08-19T10:40:25;24.21;72.57
66722;SHT31;53633;49.932;10.884;2022-08-19T10:42:52;24.25;72.08
66722;SHT31;53633;49.932;10.884;2022-08-19T10:45:19;24.44;71.81
66722;SHT31;53633;49.932;10.884;2022-08-19T10:47:45;24.40;71.78
66722;SHT31;53633;49.932;10.884;2022-08-19T10:50:12;24.41;71.08
66722;SHT31;53633;49.932;10.884;2022-08-19T10:52:40;24.54;71.08
66722;SHT31;53633;49.932;10.884;2022-08-19T10:55:16;24.61;70.61
66722;SHT31;53633;49.932;10.884;2022-08-19T10:57:44;24.52;70.27
66722;SHT31;53633;49.932;10.884;2022-08-19T11:00:28;24.55;70.60
66722;SHT31;53633;49.932;10.884;2022-08-19T11:02:55;24.54;70.65
66722;SHT31;53633;49.932;10.884;2022-08-19T11:05:21;24.51;70.38
66722;SHT31;53633;49.932;10.884;2022-08-19T11:07:50;24.37;70.68
66722;SHT31;53633;49.932;10.884;2022-08-19T11:10:17;24.31;70.86
66722;SHT31;53633;49.932;10.884;2022-08-19T11:12:49;24.25;71.22
66722;SHT31;53633;49.932;10.884;2022-08-19T11:15:15;24.18;71.38
66722;SHT31;53633;49.932;10.884;2022-08-19T11:17:42;24.23;71.82
66722;SHT31;53633;49.932;10.884;2022-08-19T11:20:11;24.37;71.51
66722;SHT31;53633;49.932;10.884;2022-08-19T11:22:38;24.43;70.77
66722;SHT31;53633;49.932;10.884;2022-08-19T11:25:08;24.45;71.00
66722;SHT31;53633;49.932;10.884;2022-08-19T11:27:38;24.54;70.76
66722;SHT31;53633;49.932;10.884;2022-08-19T11:30:08;24.52;70.37
66722;SHT31;53633;49.932;10.884;2022-08-19T11:32:38;24.67;70.06
66722;SHT31;53633;49.932;10.884;2022-08-19T11:35:06;24.47;69.63
66722;SHT31;53633;49.932;10.884;2022-08-19T11:37:33;24.67;70.06
66722;SHT31;53633;49.932;10.884;2022-08-19T11:39:59;24.82;69.46
66722;SHT31;53633;49.932;10.884;2022-08-19T11:42:26;24.86;68.81
66722;SHT31;53633;49.932;10.884;2022-08-19T11:44:53;24.82;68.90
66722;SHT31;53633;49.932;10.884;2022-08-19T11:47:21;24.79;68.37
66722;SHT31;53633;49.932;10.884;2022-08-19T11:49:48;24.72;68.53
66722;SHT31;53633;49.932;10.884;2022-08-19T11:52:15;24.71;68.80
66722;SHT31;53633;49.932;10.884;2022-08-19T11:54:41;24.67;68.92
66722;SHT31;53633;49.932;10.884;2022-08-19T11:57:08;24.65;68.51
66722;SHT31;53633;49.932;10.884;2022-08-19T11:59:34;24.67;68.47
66722;SHT31;53633;49.932;10.884;2022-08-19T12:02:01;24.48;68.91
66722;SHT31;53633;49.932;10.884;2022-08-19T12:04:29;24.52;68.86
66722;SHT31;53633;49.932;10.884;2022-08-19T12:06:56;24.51;69.00
66722;SHT31;53633;49.932;10.884;2022-08-19T12:09:22;24.41;69.64
66722;SHT31;53633;49.932;10.884;2022-08-19T12:11:49;24.40;69.71
66722;SHT31;53633;49.932;10.884;2022-08-19T12:14:16;24.40;69.44
66722;SHT31;53633;49.932;10.884;2022-08-19T12:16:45;24.38;69.61
66722;SHT31;53633;49.932;10.884;2022-08-19T12:19:18;24.21;69.88
66722;SHT31;53633;49.932;10.884;2022-08-19T12:21:50;24.16;70.20
66722;SHT31;53633;49.932;10.884;2022-08-19T12:24:17;24.03;70.62
66722;SHT31;53633;49.932;10.884;2022-08-19T12:26:44;23.89;74.60
66722;SHT31;53633;49.932;10.884;2022-08-19T12:29:19;23.79;73.22
66722;SHT31;53633;49.932;10.884;2022-08-19T12:31:50;23.78;73.81
66722;SHT31;53633;49.932;10.884;2022-08-19T12:34:16;23.86;73.50
66722;SHT31;53633;49.932;10.884;2022-08-19T12:36:43;23.83;75.25
66722;SHT31;53633;49.932;10.884;2022-08-19T12:39:11;23.80;75.35
66722;SHT31;53633;49.932;10.884;2022-08-19T12:41:39;23.63;74.93
66722;SHT31;53633;49.932;10.884;2022-08-19T12:44:20;23.40;75.05
66722;SHT31;53633;49.932;10.884;2022-08-19T12:46:55;23.25;75.96
66722;SHT31;53633;49.932;10.884;2022-08-19T12:49:23;22.87;78.00
66722;SHT31;53633;49.932;10.884;2022-08-19T12:52:09;22.65;79.91
66722;SHT31;53633;49.932;10.884;2022-08-19T12:54:37;22.65;80.03
66722;SHT31;53633;49.932;10.884;2022-08-19T12:57:05;22.67;79.39
66722;SHT31;53633;49.932;10.884;2022-08-19T12:59:33;22.65;80.63
66722;SHT31;53633;49.932;10.884;2022-08-19T13:01:59;22.44;81.11
66722;SHT31;53633;49.932;10.884;2022-08-19T13:04:26;22.48;80.51
66722;SHT31;53633;49.932;10.884;2022-08-19T13:06:53;22.46;80.89
66722;SHT31;53633;49.932;10.884;2022-08-19T13:09:19;22.42;81.55
66722;SHT31;53633;49.932;10.884;2022-08-19T13:11:47;22.27;82.34
66722;SHT31;53633;49.932;10.884;2022-08-19T13:14:14;22.22;82.94
66722;SHT31;53633;49.932;10.884;2022-08-19T13:16:40;21.97;84.79
66722;SHT31;53633;49.932;10.884;2022-08-19T13:19:07;21.90;86.01
66722;SHT31;53633;49.932;10.884;2022-08-19T13:21:34;21.93;85.93
66722;SHT31;53633;49.932;10.884;2022-08-19T13:24:02;21.98;84.63
66722;SHT31;53633;49.932;10.884;2022-08-19T13:26:29;22.10;83.82
66722;SHT31;53633;49.932;10.884;2022-08-19T13:28:57;22.22;83.97
66722;SHT31;53633;49.932;10.884;2022-08-19T13:31:26;22.34;83.28
66722;SHT31;53633;49.932;10.884;2022-08-19T13:33:53;22.59;81.55
66722;SHT31;53633;49.932;10.884;2022-08-19T13:36:19;22.66;83.17
66722;SHT31;53633;49.932;10.884;2022-08-19T13:38:46;22.39;83.32
66722;SHT31;53633;49.932;10.884;2022-08-19T13:41:13;22.60;81.66
66722;SHT31;53633;49.932;10.884;2022-08-19T13:43:40;22.41;82.92
66722;SHT31;53633;49.932;10.884;2022-08-19T13:46:10;22.55;82.28
66722;SHT31;53633;49.932;10.884;2022-08-19T13:48:37;22.22;83.71
66722;SHT31;53633;49.932;10.884;2022-08-19T13:51:05;22.25;84.18
66722;SHT31;53633;49.932;10.884;2022-08-19T13:53:31;22.15;83.27
66722;SHT31;53633;49.932;10.884;2022-08-19T13:55:58;22.34;81.89
66722;SHT31;53633;49.932;10.884;2022-08-19T13:58:25;22.45;78.81
66722;SHT31;53633;49.932;10.884;2022-08-19T14:00:51;22.49;77.36
66722;SHT31;53633;49.932;10.884;2022-08-19T14:03:19;22.70;76.90
66722;SHT31;53633;49.932;10.884;2022-08-19T14:05:46;22.93;75.63
66722;SHT31;53633;49.932;10.884;2022-08-19T14:08:13;22.99;75.12
66722;SHT31;53633;49.932;10.884;2022-08-19T14:10:40;22.93;75.95
66722;SHT31;53633;49.932;10.884;2022-08-19T14:13:07;22.96;75.11
66722;SHT31;53633;49.932;10.884;2022-08-19T14:15:34;23.10;75.00
66722;SHT31;53633;49.932;10.884;2022-08-19T14:18:00;23.15;74.64
66722;SHT31;53633;49.932;10.884;2022-08-19T14:20:29;22.87;78.75
66722;SHT31;53633;49.932;10.884;2022-08-19T14:22:55;22.67;77.66
66722;SHT31;53633;49.932;10.884;2022-08-19T14:25:24;22.70;77.20
66722;SHT31;53633;49.932;10.884;2022-08-19T14:27:52;22.72;76.63
66722;SHT31;53633;49.932;10.884;2022-08-19T14:30:21;22.72;78.74
66722;SHT31;53633;49.932;10.884;2022-08-19T14:32:48;22.84;77.98
66722;SHT31;53633;49.932;10.884;2022-08-19T14:35:15;23.06;75.83
66722;SHT31;53633;49.932;10.884;2022-08-19T14:37:44;23.17;74.76
66722;SHT31;53633;49.932;10.884;2022-08-19T14:40:24;23.17;74.11
66722;SHT31;53633;49.932;10.884;2022-08-19T14:42:51;23.11;74.69
66722;SHT31;53633;49.932;10.884;2022-08-19T14:45:18;23.04;76.79
66722;SHT31;53633;49.932;10.884;2022-08-19T14:47:45;23.00;76.03
66722;SHT31;53633;49.932;10.884;2022-08-19T14:50:11;22.84;76.28
66722;SHT31;53633;49.932;10.884;2022-08-19T14:52:46;22.80;77.72
66722;SHT31;53633;49.932;10.884;2022-08-19T14:55:14;22.66;76.18
66722;SHT31;53633;49.932;10.884;2022-08-19T14:57:41;22.99;75.67
66722;SHT31;53633;49.932;10.884;2022-08-19T15:00:09;23.11;75.45
66722;SHT31;53633;49.932;10.884;2022-08-19T15:02:36;23.15;75.69
66722;SHT31;53633;49.932;10.884;2022-08-19T15:05:03;23.17;75.62
66722;SHT31;53633;49.932;10.884;2022-08-19T15:07:30;23.13;76.49
66722;SHT31;53633;49.932;10.884;2022-08-19T15:09:58;22.84;80.60
66722;SHT31;53633;49.932;10.884;2022-08-19T15:12:25;22.62;81.95
66722;SHT31;53633;49.932;10.884;2022-08-19T15:14:52;22.44;81.39
66722;SHT31;53633;49.932;10.884;2022-08-19T15:17:22;22.48;78.99
66722;SHT31;53633;49.932;10.884;2022-08-19T15:20:10;22.63;77.36
66722;SHT31;53633;49.932;10.884;2022-08-19T15:22:38;22.59;77.80
66722;SHT31;53633;49.932;10.884;2022-08-19T15:25:09;22.42;81.04
66722;SHT31;53633;49.932;10.884;2022-08-19T15:27:37;22.39;82.21